Preview of NWS' New Version of Forecast
This preview is not operational and should not be used for support decisions.

Terminal Aerodrome Forecast (TAF)

Issued by National Weather Service (NWS)

                            
000
FTUS42 KMFL 172329
TAFMIA
TAF
KMIA 172329Z 1800/1906 08007KT P6SM VCSH SCT015 BKN035
     FM180500 35005KT P6SM SCT010 BKN035 OVC050
     FM181700 01010KT P6SM VCSH SCT010 BKN035 OVC050=